Saltar para o conteúdo principal

Bragança (Aeródromo)

ID 1200576 · 41.8576, -6.7080 mapa

Última leitura · 2026-05-09 19:00 (Europe/Lisbon)

Temperatura
11.2 °C
Humidade
93 %
Pressão
1,007.5 hPa
Precipitação
0.0 mm
Radiação
Velocidade do vento
4.7 km/h
Direcção do vento
NE · Nordeste

Histórico de 24 horas

Hora (Europe/Lisbon) Temperatura Humidade Pressão Chuva Vento Direcção
2026-05-09 19:00 11.2 °C 93 % 1,007.5 0.0 mm 4.7 km/h NE
2026-05-09 18:00 10.2 °C 99 % 1,007.4 0.1 mm 5.4 km/h E
2026-05-09 17:00 9.6 °C 98 % 1,007.6 5.7 mm 9.0 km/h E
2026-05-09 16:00 12.6 °C 83 % 1,006.5 1.2 mm 11.9 km/h S
2026-05-09 15:00 12.2 °C 90 % 1,007.0 0.0 mm 8.3 km/h SE
2026-05-09 14:00 11.6 °C 95 % 1,007.4 0.9 mm 10.8 km/h S
2026-05-09 13:00 10.8 °C 99 % 1,007.9 1.5 mm 1.8 km/h E
2026-05-09 12:00 12.2 °C 80 % 1,007.1 2.5 mm 13.0 km/h S
2026-05-09 11:00 13.4 °C 68 % 1,006.8 0.0 mm 13.3 km/h E
2026-05-09 10:00 13.1 °C 69 % 1,007.4 0.0 mm 12.6 km/h E
2026-05-09 09:00 11.6 °C 82 % 1,007.9 0.0 mm 11.2 km/h E
2026-05-09 08:00 10.5 °C 89 % 1,008.2 0.0 mm 11.5 km/h NE
2026-05-09 07:00 9.7 °C 92 % 1,008.5 0.0 mm 11.9 km/h NE
2026-05-09 06:00 9.6 °C 92 % 1,008.5 0.0 mm 12.2 km/h NE
2026-05-09 05:00 9.7 °C 91 % 1,008.8 0.1 mm 9.4 km/h NE
2026-05-09 04:00 10.0 °C 84 % 1,008.9 0.2 mm 10.1 km/h NE
2026-05-09 03:00 10.2 °C 80 % 1,009.1 0.0 mm 13.7 km/h N
2026-05-09 02:00 10.0 °C 82 % 1,009.5 0.0 mm 14.0 km/h NE
2026-05-09 01:00 9.5 °C 85 % 1,010.1 0.0 mm 15.8 km/h NE
2026-05-09 00:00 9.1 °C 88 % 1,010.7 0.0 mm 12.2 km/h NE
2026-05-08 23:00 8.9 °C 91 % 1,011.0 0.0 mm 11.5 km/h NE
2026-05-08 22:00 9.7 °C 91 % 1,010.9 0.0 mm 10.4 km/h N
2026-05-08 21:00 11.4 °C 83 % 1,010.0 0.0 mm 10.1 km/h NE
2026-05-08 20:00 12.1 °C 77 % 1,009.5 0.2 mm 5.8 km/h